createdAt,value
2018-01-15T00:00:38.932Z,0
2018-01-15T00:01:19.488Z,0
2018-01-15T00:02:00.036Z,0
2018-01-15T00:02:40.596Z,0
2018-01-15T00:03:21.358Z,0
2018-01-15T00:04:01.909Z,0
2018-01-15T00:04:42.504Z,0
2018-01-15T00:05:23.053Z,0
2018-01-15T00:06:03.627Z,0
2018-01-15T00:06:44.182Z,0
2018-01-15T00:07:24.739Z,0
2018-01-15T00:08:05.301Z,0
2018-01-15T00:08:45.853Z,0
2018-01-15T00:09:26.398Z,0
2018-01-15T00:10:06.953Z,0
2018-01-15T00:10:47.503Z,0
2018-01-15T00:11:28.100Z,0
2018-01-15T00:12:08.667Z,0
2018-01-15T00:12:49.215Z,0
2018-01-15T00:13:29.767Z,0
2018-01-15T00:14:10.344Z,0
2018-01-15T00:14:50.907Z,0
2018-01-15T00:15:31.462Z,0
2018-01-15T00:16:12.051Z,0
2018-01-15T00:16:52.610Z,0
2018-01-15T00:17:33.173Z,0
2018-01-15T00:18:13.712Z,0
2018-01-15T00:18:54.273Z,0
2018-01-15T00:19:34.828Z,0
2018-01-15T00:20:15.389Z,0
2018-01-15T00:20:55.944Z,0
2018-01-15T00:21:36.513Z,0
2018-01-15T00:22:17.078Z,0
2018-01-15T00:22:57.625Z,0
2018-01-15T00:23:38.181Z,0
2018-01-15T00:24:18.750Z,0
2018-01-15T00:24:59.308Z,0
2018-01-15T00:25:39.922Z,0
2018-01-15T00:26:20.480Z,0
2018-01-15T00:27:01.064Z,0
2018-01-15T00:27:41.646Z,0
2018-01-15T00:28:22.219Z,0
2018-01-15T00:29:02.768Z,0
2018-01-15T00:29:43.335Z,0
2018-01-15T00:30:23.931Z,0
2018-01-15T00:31:04.493Z,0
2018-01-15T00:31:45.058Z,0
2018-01-15T00:32:25.617Z,0
2018-01-15T00:33:06.172Z,0
2018-01-15T00:33:46.736Z,0
2018-01-15T00:34:27.317Z,0
2018-01-15T00:35:07.883Z,0
2018-01-15T00:35:48.430Z,0
2018-01-15T00:36:29.003Z,0
2018-01-15T00:37:09.564Z,0
2018-01-15T00:37:50.131Z,0
2018-01-15T00:38:30.735Z,0
2018-01-15T00:39:11.305Z,0
2018-01-15T00:39:51.857Z,0
2018-01-15T00:40:32.428Z,0
2018-01-15T00:41:12.989Z,0
2018-01-15T00:41:53.545Z,0
2018-01-15T00:42:34.107Z,0
2018-01-15T00:43:14.669Z,0
2018-01-15T00:43:55.252Z,0
2018-01-15T00:44:35.853Z,0
2018-01-15T00:45:16.434Z,0
2018-01-15T00:45:57.007Z,0
2018-01-15T00:46:37.570Z,0
2018-01-15T00:47:18.134Z,0
2018-01-15T00:47:58.695Z,0
2018-01-15T00:48:39.246Z,0
2018-01-15T00:49:19.808Z,0
2018-01-15T00:50:00.378Z,0
2018-01-15T00:50:40.993Z,0
2018-01-15T00:51:21.555Z,0
2018-01-15T00:52:02.109Z,0
2018-01-15T00:52:42.662Z,0
2018-01-15T00:53:23.230Z,0
2018-01-15T00:54:03.784Z,0
2018-01-15T00:54:44.335Z,0
2018-01-15T00:55:24.893Z,0
2018-01-15T00:56:05.453Z,0
2018-01-15T00:56:46.002Z,0
2018-01-15T00:57:26.560Z,0
2018-01-15T00:58:07.118Z,0
2018-01-15T00:58:47.676Z,0
2018-01-15T00:59:28.242Z,0
2018-01-15T01:00:08.796Z,0
2018-01-15T01:00:49.349Z,0
2018-01-15T01:01:29.905Z,0
2018-01-15T01:02:10.460Z,0
2018-01-15T01:02:51.019Z,0
2018-01-15T01:03:31.584Z,0
2018-01-15T01:04:12.130Z,0
2018-01-15T01:04:52.689Z,0
2018-01-15T01:05:33.249Z,0
2018-01-15T01:06:13.794Z,0
2018-01-15T01:06:54.348Z,0
2018-01-15T01:07:34.907Z,0
2018-01-15T01:08:15.466Z,0
2018-01-15T01:08:56.031Z,0
2018-01-15T01:09:36.597Z,0
2018-01-15T01:10:17.156Z,0
2018-01-15T01:10:57.719Z,0
2018-01-15T01:11:38.275Z,0
2018-01-15T01:12:18.828Z,0
2018-01-15T01:12:59.376Z,0
2018-01-15T01:13:39.939Z,0
2018-01-15T01:14:20.500Z,0
2018-01-15T01:15:01.065Z,0
2018-01-15T01:15:41.638Z,0
2018-01-15T01:16:22.206Z,0
2018-01-15T01:17:02.778Z,0
2018-01-15T01:17:43.343Z,0
2018-01-15T01:18:23.914Z,0
2018-01-15T01:19:04.477Z,0
2018-01-15T01:19:45.029Z,0
2018-01-15T01:20:25.601Z,0
2018-01-15T01:21:06.159Z,0
2018-01-15T01:21:46.735Z,0
2018-01-15T01:22:27.310Z,0
2018-01-15T01:23:07.856Z,0
2018-01-15T01:23:48.417Z,0
2018-01-15T01:24:29.005Z,0
2018-01-15T01:25:09.571Z,0
2018-01-15T01:25:50.139Z,0
2018-01-15T01:26:30.734Z,0
2018-01-15T01:27:11.285Z,0
2018-01-15T01:27:51.836Z,0
2018-01-15T01:28:32.395Z,0
2018-01-15T01:29:12.951Z,0
2018-01-15T01:29:53.511Z,0
2018-01-15T01:30:34.060Z,0
2018-01-15T01:31:14.620Z,0
2018-01-15T01:31:55.182Z,0
2018-01-15T01:32:35.759Z,0
2018-01-15T01:33:16.319Z,0
2018-01-15T01:33:56.882Z,0
2018-01-15T01:34:37.439Z,0
2018-01-15T01:35:18.004Z,0
2018-01-15T01:35:58.566Z,0
2018-01-15T01:36:39.117Z,0
2018-01-15T01:37:19.672Z,0
2018-01-15T01:38:00.223Z,0
2018-01-15T01:38:40.794Z,0
2018-01-15T01:39:21.353Z,0
2018-01-15T01:40:01.922Z,0
2018-01-15T01:40:42.481Z,0
2018-01-15T01:41:23.032Z,0
2018-01-15T01:42:03.583Z,0
2018-01-15T01:42:44.134Z,0
2018-01-15T01:43:24.679Z,0
2018-01-15T01:44:05.238Z,0
2018-01-15T01:44:45.786Z,0
2018-01-15T01:45:27.855Z,0
2018-01-15T01:46:08.432Z,0
2018-01-15T01:46:48.978Z,0
2018-01-15T01:47:29.544Z,0
2018-01-15T01:48:10.109Z,0
2018-01-15T01:48:50.666Z,0
2018-01-15T01:49:31.240Z,0
2018-01-15T01:50:11.795Z,0
2018-01-15T01:50:52.358Z,0
2018-01-15T01:51:32.904Z,0
2018-01-15T01:52:13.454Z,0
2018-01-15T01:52:54.006Z,0
2018-01-15T01:53:34.568Z,0
2018-01-15T01:54:15.125Z,0
2018-01-15T01:54:55.677Z,0
2018-01-15T01:55:36.230Z,0
2018-01-15T01:56:16.785Z,0
2018-01-15T01:56:57.346Z,0
2018-01-15T01:57:37.907Z,0
2018-01-15T01:58:18.480Z,0
2018-01-15T01:58:59.042Z,0
2018-01-15T01:59:39.597Z,0
2018-01-15T02:00:20.155Z,0
2018-01-15T02:01:00.721Z,0
2018-01-15T02:01:41.281Z,0
2018-01-15T02:02:21.835Z,0
2018-01-15T02:03:02.386Z,0
2018-01-15T02:03:42.948Z,0
2018-01-15T02:04:23.502Z,0
2018-01-15T02:05:04.075Z,0
2018-01-15T02:05:44.626Z,0
2018-01-15T02:06:25.192Z,0
2018-01-15T02:07:05.752Z,0
2018-01-15T02:07:46.304Z,0
2018-01-15T02:08:26.862Z,0
2018-01-15T02:09:07.424Z,0
2018-01-15T02:09:47.987Z,0
2018-01-15T02:10:28.559Z,0
2018-01-15T02:11:09.111Z,0
2018-01-15T02:11:49.669Z,0
2018-01-15T02:12:30.223Z,0
2018-01-15T02:13:10.778Z,0
2018-01-15T02:13:51.340Z,0
2018-01-15T02:14:31.901Z,0
2018-01-15T02:15:12.454Z,0
2018-01-15T02:15:53.018Z,0
2018-01-15T02:16:33.575Z,0
2018-01-15T02:17:14.143Z,0
2018-01-15T02:17:54.693Z,0
2018-01-15T02:18:35.251Z,0
2018-01-15T02:19:15.808Z,0
2018-01-15T02:19:56.359Z,0
2018-01-15T02:20:36.907Z,0
2018-01-15T02:21:17.465Z,0
2018-01-15T02:21:58.031Z,0
2018-01-15T02:22:38.591Z,0
2018-01-15T02:23:19.149Z,0
2018-01-15T02:23:59.702Z,0
2018-01-15T02:24:40.275Z,0
2018-01-15T02:25:20.833Z,0
2018-01-15T02:26:01.378Z,0
2018-01-15T02:26:41.941Z,0
2018-01-15T02:27:22.495Z,0
2018-01-15T02:28:03.047Z,0
2018-01-15T02:28:43.596Z,0
2018-01-15T02:29:24.140Z,0
2018-01-15T02:30:04.724Z,0
2018-01-15T02:30:45.278Z,0
2018-01-15T02:31:25.842Z,0
2018-01-15T02:32:06.405Z,0
2018-01-15T02:32:46.951Z,0
2018-01-15T02:33:27.508Z,0
2018-01-15T02:34:08.065Z,0
2018-01-15T02:34:48.614Z,0
2018-01-15T02:35:29.165Z,0
2018-01-15T02:36:09.718Z,0
2018-01-15T02:36:50.281Z,0
2018-01-15T02:37:30.843Z,0
2018-01-15T02:38:11.422Z,0
2018-01-15T02:38:51.967Z,0
2018-01-15T02:39:32.527Z,0
2018-01-15T02:40:13.093Z,0
2018-01-15T02:40:53.670Z,0
2018-01-15T02:41:34.232Z,0
2018-01-15T02:42:14.799Z,0
2018-01-15T02:42:55.344Z,0
2018-01-15T02:43:35.902Z,0
2018-01-15T02:44:16.452Z,0
2018-01-15T02:44:57.003Z,0
2018-01-15T02:45:37.555Z,0
2018-01-15T02:46:18.126Z,0
2018-01-15T02:46:58.693Z,0
2018-01-15T02:47:39.253Z,0
2018-01-15T02:48:19.817Z,0
2018-01-15T02:49:00.381Z,0
2018-01-15T02:49:40.935Z,0
2018-01-15T02:50:21.490Z,0
2018-01-15T02:51:02.060Z,0
2018-01-15T02:51:42.630Z,0
2018-01-15T02:52:23.196Z,0
2018-01-15T02:53:03.750Z,0
2018-01-15T02:53:44.324Z,0
2018-01-15T02:54:24.881Z,0
2018-01-15T02:55:05.440Z,0
2018-01-15T02:55:46.038Z,0
2018-01-15T02:56:26.599Z,0
2018-01-15T02:57:07.152Z,0
2018-01-15T02:57:47.720Z,0
2018-01-15T02:58:28.274Z,0
2018-01-15T02:59:08.826Z,0
2018-01-15T02:59:49.387Z,0
2018-01-15T03:00:29.941Z,0
2018-01-15T03:01:10.508Z,0
2018-01-15T03:01:51.068Z,0
2018-01-15T03:02:31.629Z,0
2018-01-15T03:03:12.181Z,0
2018-01-15T03:03:52.756Z,0
2018-01-15T03:04:33.312Z,0
2018-01-15T03:05:13.867Z,0
2018-01-15T03:05:54.430Z,0
2018-01-15T03:06:35.004Z,0
2018-01-15T03:07:15.611Z,0
2018-01-15T03:07:56.171Z,0
2018-01-15T03:08:36.723Z,0
2018-01-15T03:09:17.273Z,0
2018-01-15T03:09:57.838Z,0
2018-01-15T03:10:38.391Z,0
2018-01-15T03:11:18.943Z,0
2018-01-15T03:11:59.497Z,0
2018-01-15T03:12:40.067Z,0
2018-01-15T03:13:20.622Z,0
2018-01-15T03:14:01.186Z,0
2018-01-15T03:14:41.734Z,0
2018-01-15T03:15:22.289Z,0
2018-01-15T03:16:02.847Z,0
2018-01-15T03:16:43.434Z,0
2018-01-15T03:17:23.996Z,0
2018-01-15T03:18:04.555Z,0
2018-01-15T03:18:45.106Z,0
2018-01-15T03:19:25.655Z,0
2018-01-15T03:20:06.206Z,0
2018-01-15T03:20:46.766Z,0
2018-01-15T03:21:27.337Z,0
2018-01-15T03:22:07.897Z,0
2018-01-15T03:22:48.474Z,0
2018-01-15T03:23:29.040Z,0
2018-01-15T03:24:09.594Z,0
2018-01-15T03:24:50.167Z,0
2018-01-15T03:25:30.724Z,0
2018-01-15T03:26:11.293Z,0
2018-01-15T03:26:51.855Z,0
2018-01-15T03:27:32.412Z,0
2018-01-15T03:28:12.991Z,0
2018-01-15T03:28:53.550Z,0
2018-01-15T03:29:34.096Z,0
2018-01-15T03:30:14.660Z,0
2018-01-15T03:30:55.224Z,0
2018-01-15T03:31:35.782Z,0
2018-01-15T03:32:16.350Z,0
2018-01-15T03:32:56.946Z,0
2018-01-15T03:33:37.498Z,0
2018-01-15T03:34:18.047Z,0
2018-01-15T03:34:58.613Z,0
2018-01-15T03:35:39.177Z,0
2018-01-15T03:36:19.739Z,0
2018-01-15T03:37:00.289Z,0
2018-01-15T03:37:40.850Z,0
2018-01-15T03:38:21.427Z,0
2018-01-15T03:39:01.985Z,0
2018-01-15T03:39:42.544Z,0
2018-01-15T03:40:23.099Z,0
2018-01-15T03:41:03.653Z,0
2018-01-15T03:41:44.214Z,0
2018-01-15T03:42:24.770Z,0
2018-01-15T03:43:05.350Z,0
2018-01-15T03:43:45.904Z,0
2018-01-15T03:44:26.481Z,0
2018-01-15T03:45:07.025Z,0
2018-01-15T03:45:47.584Z,0
2018-01-15T03:46:28.141Z,0
2018-01-15T03:47:08.693Z,0
2018-01-15T03:47:49.251Z,0
2018-01-15T03:48:29.808Z,0
2018-01-15T03:49:10.371Z,0
2018-01-15T03:49:50.951Z,0
2018-01-15T03:50:31.517Z,0
2018-01-15T03:51:12.096Z,0
2018-01-15T03:51:52.647Z,0
2018-01-15T03:52:33.212Z,0
2018-01-15T03:53:13.769Z,0
2018-01-15T03:53:54.319Z,0
2018-01-15T03:54:34.893Z,0
2018-01-15T03:55:15.448Z,0
2018-01-15T03:55:55.997Z,0
2018-01-15T03:56:36.552Z,0
2018-01-15T03:57:17.099Z,0
2018-01-15T03:57:57.647Z,0
2018-01-15T03:58:38.198Z,0
2018-01-15T03:59:18.755Z,0
2018-01-15T03:59:59.320Z,0
2018-01-15T04:00:39.875Z,0
2018-01-15T04:01:20.439Z,0
2018-01-15T04:02:01.000Z,0
2018-01-15T04:02:41.585Z,0
2018-01-15T04:03:22.140Z,0
2018-01-15T04:04:02.704Z,0
2018-01-15T04:04:43.270Z,0
2018-01-15T04:05:23.871Z,0
2018-01-15T04:06:04.442Z,0
2018-01-15T04:06:45.025Z,0
2018-01-15T04:07:25.579Z,0
2018-01-15T04:08:06.150Z,0
2018-01-15T04:08:46.746Z,0
2018-01-15T04:09:27.310Z,0
2018-01-15T04:10:07.879Z,0
2018-01-15T04:10:48.431Z,0
2018-01-15T04:11:28.995Z,0
2018-01-15T04:12:09.571Z,0
2018-01-15T04:12:50.121Z,0
2018-01-15T04:13:30.695Z,0
2018-01-15T04:14:11.284Z,0
2018-01-15T04:14:51.848Z,0
2018-01-15T04:15:32.422Z,0
2018-01-15T04:16:12.985Z,0
2018-01-15T04:16:53.555Z,0
2018-01-15T04:17:34.108Z,0
2018-01-15T04:18:14.664Z,0
2018-01-15T04:18:55.246Z,0
2018-01-15T04:19:35.866Z,0
2018-01-15T04:20:16.487Z,0
2018-01-15T04:20:56.996Z,0
2018-01-15T04:21:37.564Z,0
2018-01-15T04:22:18.120Z,0
2018-01-15T04:22:58.682Z,0
2018-01-15T04:23:39.253Z,0
2018-01-15T04:24:19.820Z,0
2018-01-15T04:25:00.371Z,0
2018-01-15T04:25:40.944Z,0
2018-01-15T04:26:21.499Z,0
2018-01-15T04:27:02.060Z,0
2018-01-15T04:27:42.642Z,0
2018-01-15T04:28:23.197Z,0
2018-01-15T04:29:03.775Z,0
2018-01-15T04:29:44.354Z,0
2018-01-15T04:30:24.906Z,0
2018-01-15T04:31:05.467Z,0
2018-01-15T04:31:46.058Z,0
2018-01-15T04:32:26.629Z,0
2018-01-15T04:33:07.200Z,0
2018-01-15T04:35:25.071Z,0
2018-01-15T04:36:05.619Z,0
2018-01-15T04:36:46.166Z,0
2018-01-15T04:37:26.717Z,0
2018-01-15T04:38:07.271Z,0
2018-01-15T04:38:47.837Z,0
2018-01-15T04:39:28.389Z,0
2018-01-15T04:40:08.939Z,0
2018-01-15T04:40:49.496Z,0
2018-01-15T04:41:30.056Z,0
2018-01-15T04:42:10.613Z,0
2018-01-15T04:42:51.170Z,0
2018-01-15T04:43:31.724Z,0
2018-01-15T04:44:12.287Z,0
2018-01-15T04:44:52.835Z,0
2018-01-15T04:45:33.399Z,0
2018-01-15T04:46:13.951Z,0
2018-01-15T04:46:54.495Z,0
2018-01-15T04:47:35.052Z,0
2018-01-15T04:48:15.596Z,0
2018-01-15T04:48:56.142Z,0
2018-01-15T04:49:36.689Z,0
2018-01-15T04:50:17.252Z,0
2018-01-15T04:50:57.810Z,0
2018-01-15T04:51:38.367Z,0
2018-01-15T04:52:18.916Z,0
2018-01-15T04:52:59.494Z,0
2018-01-15T04:53:40.056Z,0
2018-01-15T04:54:20.603Z,0
2018-01-15T04:55:01.159Z,0
2018-01-15T04:55:41.716Z,0
2018-01-15T04:56:22.268Z,0
2018-01-15T04:57:02.828Z,0
2018-01-15T04:57:43.397Z,0
2018-01-15T04:58:23.959Z,0
2018-01-15T04:59:04.529Z,0
2018-01-15T04:59:45.080Z,0
2018-01-15T05:00:25.652Z,0
2018-01-15T05:01:06.233Z,0
2018-01-15T05:01:46.791Z,0
2018-01-15T05:02:27.349Z,0
2018-01-15T05:03:07.913Z,0
2018-01-15T05:03:48.463Z,0
2018-01-15T05:04:29.017Z,0
2018-01-15T05:05:09.606Z,0
2018-01-15T05:05:50.140Z,0
2018-01-15T05:06:30.712Z,0
2018-01-15T05:07:11.274Z,0
2018-01-15T05:07:51.821Z,0
2018-01-15T05:08:32.379Z,0
2018-01-15T05:09:12.954Z,0
2018-01-15T05:09:53.503Z,0
2018-01-15T05:10:34.076Z,0
2018-01-15T05:11:14.639Z,0
2018-01-15T05:11:55.214Z,0
2018-01-15T05:12:35.763Z,0
2018-01-15T05:13:16.316Z,0
2018-01-15T05:13:56.883Z,0
2018-01-15T05:14:37.439Z,0
2018-01-15T05:15:18.001Z,0
2018-01-15T05:15:58.586Z,0
2018-01-15T05:16:39.146Z,0
2018-01-15T05:17:19.722Z,0
2018-01-15T05:18:00.269Z,0
2018-01-15T05:18:40.827Z,0
2018-01-15T05:19:21.393Z,0
2018-01-15T05:20:01.974Z,0
2018-01-15T05:20:42.538Z,0
2018-01-15T05:21:23.091Z,0
2018-01-15T05:22:03.652Z,0
2018-01-15T05:22:44.215Z,0
2018-01-15T05:23:24.772Z,0
2018-01-15T05:24:05.325Z,0
2018-01-15T05:24:45.894Z,0
2018-01-15T05:25:26.444Z,0
2018-01-15T05:26:07.030Z,0
2018-01-15T05:26:47.586Z,0
2018-01-15T05:27:28.141Z,0
2018-01-15T05:28:08.715Z,0
2018-01-15T05:28:49.275Z,0
2018-01-15T05:29:29.836Z,0
2018-01-15T05:30:10.391Z,0
2018-01-15T05:30:50.952Z,0
2018-01-15T05:31:31.514Z,0
2018-01-15T05:32:12.071Z,0
2018-01-15T05:32:52.627Z,0
2018-01-15T05:33:33.186Z,0
2018-01-15T05:34:13.750Z,0
2018-01-15T05:34:54.312Z,0
2018-01-15T05:35:34.866Z,0
2018-01-15T05:36:15.444Z,0
2018-01-15T05:36:56.027Z,0
2018-01-15T05:37:36.585Z,0
2018-01-15T05:38:17.141Z,0
2018-01-15T05:38:57.691Z,0
2018-01-15T05:39:38.264Z,0
2018-01-15T05:40:18.833Z,0
2018-01-15T05:41:09.923Z,0
2018-01-15T05:43:22.680Z,0
2018-01-15T05:44:03.263Z,0
2018-01-15T05:44:45.536Z,0
2018-01-15T05:45:26.088Z,0
2018-01-15T05:46:06.649Z,0
2018-01-15T05:46:47.220Z,0
2018-01-15T05:47:27.892Z,0
2018-01-15T05:48:08.440Z,0
2018-01-15T05:48:49.025Z,0
2018-01-15T05:49:29.599Z,0
2018-01-15T05:50:10.166Z,0
2018-01-15T05:50:50.733Z,0
2018-01-15T05:51:31.315Z,0
2018-01-15T05:52:11.868Z,0
2018-01-15T05:52:52.422Z,0
2018-01-15T05:53:32.975Z,0
2018-01-15T05:54:13.539Z,0
2018-01-15T05:54:54.100Z,0
2018-01-15T05:55:34.670Z,0
2018-01-15T05:56:15.248Z,0
2018-01-15T05:56:55.819Z,0
2018-01-15T05:57:36.380Z,0
2018-01-15T05:58:16.941Z,0
2018-01-15T05:58:57.511Z,0
2018-01-15T05:59:38.065Z,0
2018-01-15T06:00:18.623Z,0
2018-01-15T06:00:59.178Z,0
2018-01-15T06:01:39.734Z,0
2018-01-15T06:02:20.292Z,0
2018-01-15T06:03:00.873Z,0
2018-01-15T06:03:41.437Z,0
2018-01-15T06:04:22.011Z,0
2018-01-15T06:05:02.564Z,0
2018-01-15T06:05:43.138Z,0
2018-01-15T06:06:23.743Z,0
2018-01-15T06:07:04.303Z,0
2018-01-15T06:07:44.857Z,0
2018-01-15T06:08:25.414Z,0
2018-01-15T06:09:05.965Z,0
2018-01-15T06:09:46.528Z,0
2018-01-15T06:10:27.102Z,0
2018-01-15T06:11:07.652Z,0
2018-01-15T06:11:48.234Z,0
2018-01-15T06:12:28.843Z,0
2018-01-15T06:13:09.413Z,0
2018-01-15T06:13:49.986Z,0
2018-01-15T06:14:30.537Z,0
2018-01-15T06:15:11.143Z,0
2018-01-15T06:15:51.727Z,0
2018-01-15T06:16:32.292Z,0
2018-01-15T06:17:12.855Z,0
2018-01-15T06:17:53.416Z,0
2018-01-15T06:18:33.977Z,0
2018-01-15T06:19:14.541Z,0
2018-01-15T06:19:55.120Z,0
2018-01-15T06:20:35.705Z,0
2018-01-15T06:21:16.267Z,0
2018-01-15T06:21:56.837Z,0
2018-01-15T06:22:37.397Z,0
2018-01-15T06:23:17.964Z,0
2018-01-15T06:23:58.535Z,0
2018-01-15T06:24:39.125Z,0
2018-01-15T06:25:19.684Z,0
2018-01-15T06:26:00.266Z,0
2018-01-15T06:26:40.851Z,0
2018-01-15T06:27:21.406Z,0
2018-01-15T06:28:01.995Z,0
2018-01-15T06:28:42.549Z,0
2018-01-15T06:29:23.099Z,0
2018-01-15T06:30:03.695Z,0
2018-01-15T06:30:44.295Z,0
2018-01-15T06:31:24.852Z,0
2018-01-15T06:32:05.411Z,0
2018-01-15T06:32:45.996Z,0
2018-01-15T06:33:26.546Z,0
2018-01-15T06:34:07.135Z,0
2018-01-15T06:34:47.696Z,0
2018-01-15T06:35:28.283Z,0
2018-01-15T06:36:08.869Z,0
2018-01-15T06:36:49.448Z,0
2018-01-15T06:37:30.011Z,0
2018-01-15T06:38:10.580Z,0
2018-01-15T06:38:51.131Z,0
2018-01-15T06:39:31.702Z,0
2018-01-15T06:40:12.324Z,0
2018-01-15T06:40:52.875Z,0
2018-01-15T06:41:33.436Z,0
2018-01-15T06:42:13.995Z,0
2018-01-15T06:42:54.564Z,0
2018-01-15T06:43:35.133Z,0
2018-01-15T06:44:15.706Z,0
2018-01-15T06:44:56.256Z,0
2018-01-15T06:45:36.816Z,0
2018-01-15T06:46:17.365Z,0
2018-01-15T06:46:57.918Z,0
2018-01-15T06:47:38.491Z,0
2018-01-15T06:48:19.069Z,0
2018-01-15T06:48:59.656Z,0
2018-01-15T06:49:40.274Z,0
2018-01-15T06:50:20.814Z,0
2018-01-15T06:51:01.400Z,0
2018-01-15T06:51:41.985Z,0
2018-01-15T06:52:22.544Z,0
2018-01-15T06:53:03.105Z,0
2018-01-15T06:53:43.694Z,0
2018-01-15T06:54:24.376Z,0
2018-01-15T06:55:04.933Z,0
2018-01-15T06:55:45.494Z,0
2018-01-15T06:56:26.047Z,0
2018-01-15T06:57:06.634Z,0
2018-01-15T06:57:47.313Z,0
2018-01-15T06:58:27.892Z,0
2018-01-15T06:59:08.460Z,0
2018-01-15T06:59:49.028Z,0
2018-01-15T07:00:29.625Z,0
2018-01-15T07:01:11.605Z,0
2018-01-15T07:01:52.197Z,0
2018-01-15T07:02:32.771Z,0
2018-01-15T07:03:13.333Z,0
2018-01-15T07:03:53.895Z,0
2018-01-15T07:04:34.459Z,0
2018-01-15T07:05:15.021Z,0
2018-01-15T07:05:55.579Z,0
2018-01-15T07:06:36.158Z,0
2018-01-15T07:07:16.724Z,0
2018-01-15T07:07:57.281Z,0
2018-01-15T07:08:37.868Z,0
2018-01-15T07:09:18.420Z,5
2018-01-15T07:09:58.984Z,5
2018-01-15T07:10:39.550Z,5
2018-01-15T07:11:20.131Z,5
2018-01-15T07:12:00.697Z,5
2018-01-15T07:12:41.244Z,5
2018-01-15T07:13:21.802Z,5
2018-01-15T07:15:54.931Z,5
2018-01-15T07:16:35.501Z,5
2018-01-15T07:17:16.104Z,5
2018-01-15T07:17:56.665Z,5
2018-01-15T07:18:37.224Z,5
2018-01-15T07:19:17.795Z,5
2018-01-15T07:19:58.363Z,5
2018-01-15T07:20:38.941Z,10
2018-01-15T07:21:19.518Z,10
2018-01-15T07:22:00.059Z,10
2018-01-15T07:22:40.627Z,10
2018-01-15T07:23:21.178Z,10
2018-01-15T07:24:01.737Z,10
2018-01-15T07:24:42.338Z,10
2018-01-15T07:25:22.897Z,10
2018-01-15T07:26:03.473Z,10
2018-01-15T07:26:44.064Z,10
2018-01-15T07:27:24.628Z,10
2018-01-15T07:28:05.202Z,10
2018-01-15T07:28:45.779Z,10
2018-01-15T07:29:26.343Z,15
2018-01-15T07:30:06.897Z,15
2018-01-15T07:30:47.465Z,15
2018-01-15T07:31:28.041Z,15
2018-01-15T07:32:08.606Z,15
2018-01-15T07:32:49.179Z,15
2018-01-15T07:33:29.742Z,15
2018-01-15T07:34:10.305Z,15
2018-01-15T07:34:50.878Z,15
2018-01-15T07:35:31.449Z,15
2018-01-15T07:36:12.009Z,15
2018-01-15T07:36:52.571Z,20
2018-01-15T07:37:33.146Z,20
2018-01-15T07:38:13.704Z,20
2018-01-15T07:38:54.276Z,20
2018-01-15T07:39:34.845Z,20
2018-01-15T07:40:15.402Z,20
2018-01-15T07:40:55.991Z,20
2018-01-15T07:41:36.579Z,20
2018-01-15T07:42:17.140Z,20
2018-01-15T07:42:57.710Z,25
2018-01-15T07:43:38.267Z,25
2018-01-15T07:44:18.833Z,25
2018-01-15T07:44:59.390Z,25
2018-01-15T07:45:39.944Z,25
2018-01-15T07:46:20.502Z,25
2018-01-15T07:47:01.046Z,25
2018-01-15T07:47:41.604Z,25
2018-01-15T07:48:22.162Z,30
2018-01-15T07:49:02.744Z,30
2018-01-15T07:49:43.288Z,30
2018-01-15T07:50:23.846Z,30
2018-01-15T07:51:04.443Z,30
2018-01-15T07:51:45.006Z,30
2018-01-15T07:52:25.565Z,30
2018-01-15T07:53:06.124Z,30
2018-01-15T07:53:46.761Z,30
2018-01-15T07:54:27.326Z,35
2018-01-15T07:55:07.888Z,35
2018-01-15T07:55:48.454Z,35
2018-01-15T07:56:29.026Z,35
2018-01-15T07:57:09.647Z,35
2018-01-15T07:57:50.255Z,35
2018-01-15T07:58:30.819Z,35
2018-01-15T07:59:11.369Z,35
2018-01-15T07:59:51.939Z,35
2018-01-15T08:00:32.518Z,35
2018-01-15T08:01:13.079Z,40
2018-01-15T08:01:53.631Z,40
2018-01-15T08:02:34.199Z,40
2018-01-15T08:03:14.778Z,40
2018-01-15T08:03:55.348Z,40
2018-01-15T08:04:35.897Z,40
2018-01-15T08:05:16.459Z,40
2018-01-15T08:05:57.015Z,40
2018-01-15T08:06:37.571Z,40
2018-01-15T08:07:18.134Z,45
2018-01-15T08:07:58.689Z,45
2018-01-15T08:08:39.264Z,45
2018-01-15T08:09:19.835Z,45
2018-01-15T08:10:00.389Z,45
2018-01-15T08:10:40.952Z,45
2018-01-15T08:11:21.521Z,45
2018-01-15T08:12:02.106Z,45
2018-01-15T08:12:42.664Z,45
2018-01-15T08:13:23.224Z,50
2018-01-15T08:14:03.785Z,50
2018-01-15T08:14:44.346Z,50
2018-01-15T08:15:24.904Z,50
2018-01-15T08:16:05.515Z,50
2018-01-15T08:16:46.029Z,50
2018-01-15T08:17:26.590Z,50
2018-01-15T08:18:07.177Z,50
2018-01-15T08:18:47.758Z,55
2018-01-15T08:19:28.292Z,55
2018-01-15T08:20:08.880Z,55
2018-01-15T08:20:49.437Z,55
2018-01-15T08:21:30.016Z,55
2018-01-15T08:22:10.559Z,55
2018-01-15T08:22:51.110Z,55
2018-01-15T08:23:31.664Z,55
2018-01-15T08:24:12.236Z,60
2018-01-15T08:24:52.818Z,60
2018-01-15T08:25:33.390Z,60
2018-01-15T08:26:13.979Z,60
2018-01-15T08:26:54.560Z,60
2018-01-15T08:27:35.144Z,60
2018-01-15T08:28:15.708Z,60
2018-01-15T08:28:56.284Z,60
2018-01-15T08:29:36.866Z,60
2018-01-15T08:30:17.445Z,60
2018-01-15T08:30:58.038Z,60
2018-01-15T08:31:38.584Z,60
2018-01-15T08:32:19.145Z,65
2018-01-15T08:32:59.718Z,65
2018-01-15T08:33:40.377Z,65
2018-01-15T08:34:20.934Z,65
2018-01-15T08:35:01.567Z,65
2018-01-15T08:35:42.118Z,65
2018-01-15T08:36:22.673Z,65
2018-01-15T08:37:03.238Z,65
2018-01-15T08:37:43.817Z,65
2018-01-15T08:38:24.362Z,70
2018-01-15T08:39:04.920Z,70
2018-01-15T08:39:45.474Z,70
2018-01-15T08:40:26.042Z,70
2018-01-15T08:41:06.593Z,70
2018-01-15T08:41:47.147Z,70
2018-01-15T08:42:27.706Z,70
2018-01-15T08:43:08.292Z,70
2018-01-15T08:43:48.851Z,70
2018-01-15T08:44:29.407Z,70
2018-01-15T08:45:09.981Z,75
2018-01-15T08:45:50.528Z,75
2018-01-15T08:46:31.093Z,75
2018-01-15T08:47:11.650Z,75
2018-01-15T08:47:52.196Z,75
2018-01-15T08:48:32.759Z,75
2018-01-15T08:49:13.344Z,125
2018-01-15T08:49:53.904Z,205
2018-01-15T08:50:34.460Z,270
2018-01-15T08:51:15.031Z,300
2018-01-15T08:51:55.588Z,305
2018-01-15T08:52:36.155Z,295
2018-01-15T08:53:16.737Z,285
2018-01-15T08:53:57.289Z,255
2018-01-15T08:54:37.905Z,220
2018-01-15T08:55:18.466Z,200
2018-01-15T08:55:59.054Z,230
2018-01-15T08:56:39.617Z,255
2018-01-15T08:57:20.192Z,275
2018-01-15T08:58:00.762Z,280
2018-01-15T08:58:41.315Z,290
2018-01-15T08:59:21.882Z,280
2018-01-15T09:00:02.430Z,260
2018-01-15T09:00:43.034Z,205
2018-01-15T09:01:23.573Z,235
2018-01-15T09:02:04.148Z,350
2018-01-15T09:02:44.718Z,445
2018-01-15T09:03:25.296Z,475
2018-01-15T09:04:05.862Z,460
2018-01-15T09:04:46.427Z,530
2018-01-15T09:05:26.980Z,570
2018-01-15T09:06:07.541Z,560
2018-01-15T09:06:48.127Z,540
2018-01-15T09:07:28.710Z,550
2018-01-15T09:08:09.265Z,550
2018-01-15T09:08:49.823Z,585
2018-01-15T09:09:30.399Z,640
2018-01-15T09:10:10.994Z,675
2018-01-15T09:10:51.583Z,690
2018-01-15T09:11:32.159Z,600
2018-01-15T09:12:12.715Z,510
2018-01-15T09:12:53.279Z,370
2018-01-15T09:13:33.841Z,305
2018-01-15T09:14:14.397Z,330
2018-01-15T09:14:54.945Z,385
2018-01-15T09:15:35.506Z,325
2018-01-15T09:16:16.063Z,295
2018-01-15T09:16:56.620Z,395
2018-01-15T09:17:37.204Z,425
2018-01-15T09:18:17.760Z,515
2018-01-15T09:18:58.335Z,545
2018-01-15T09:19:38.937Z,575
2018-01-15T09:20:19.479Z,605
2018-01-15T09:21:00.085Z,670
2018-01-15T09:21:40.637Z,680
2018-01-15T09:22:21.220Z,660
2018-01-15T09:23:01.790Z,660
2018-01-15T09:23:42.357Z,685
2018-01-15T09:24:22.928Z,680
2018-01-15T09:25:03.501Z,610
2018-01-15T09:25:44.087Z,600
2018-01-15T09:26:24.646Z,610
2018-01-15T09:27:05.229Z,580
2018-01-15T09:27:45.783Z,555
2018-01-15T09:28:26.340Z,530
2018-01-15T09:29:06.910Z,490
2018-01-15T09:29:47.471Z,455
2018-01-15T09:30:28.030Z,395
2018-01-15T09:31:08.638Z,415
2018-01-15T09:31:49.217Z,460
2018-01-15T09:32:29.798Z,530
2018-01-15T09:33:10.378Z,530
2018-01-15T09:33:50.913Z,515
2018-01-15T09:34:31.498Z,440
2018-01-15T09:35:12.071Z,425
2018-01-15T09:35:52.630Z,455
2018-01-15T09:36:33.252Z,575
2018-01-15T09:37:13.817Z,570
2018-01-15T09:37:54.391Z,560
2018-01-15T09:38:34.956Z,525
2018-01-15T09:39:15.589Z,530
2018-01-15T09:39:56.153Z,540
2018-01-15T09:40:36.718Z,550
2018-01-15T09:41:17.287Z,525
2018-01-15T09:41:57.866Z,505
2018-01-15T09:42:38.496Z,485
2018-01-15T09:43:19.061Z,500
2018-01-15T09:43:59.655Z,525
2018-01-15T09:44:40.235Z,570
2018-01-15T09:45:20.791Z,615
2018-01-15T09:46:01.359Z,675
2018-01-15T09:46:41.917Z,685
2018-01-15T09:47:22.508Z,695
2018-01-15T09:48:03.063Z,695
2018-01-15T09:48:43.628Z,655
2018-01-15T09:49:24.199Z,590
2018-01-15T09:50:04.779Z,495
2018-01-15T09:50:45.389Z,460
2018-01-15T09:51:26.003Z,470
2018-01-15T09:52:06.572Z,500
2018-01-15T09:52:47.148Z,525
2018-01-15T09:53:27.755Z,515
2018-01-15T09:54:08.317Z,450
2018-01-15T09:54:48.914Z,380
2018-01-15T09:55:29.503Z,400
2018-01-15T09:56:10.084Z,440
2018-01-15T09:56:50.646Z,445